Terminal Aerodrome Forecast
Issued by NWS

Home | Current Version | Previous Version | Text Only | Print | Product List | Glossary On
Versions: 1 2 3 4 5 6 7 8 9 10 11 12 13 14 15 16 17 18 19 20 21 22 23 24
052
FTUS45 KTFX 252212 AAA
TAFCTB
TAF AMD
KCTB 252212Z 2522/2618 27014G22KT P6SM SCT200
      TEMPO 2522/2601 26020G30KT
     FM260500 27017G27KT P6SM SCT035 BKN080 PROB30 2608/2612 4SM
      -SHSN SCT020 OVC035
     FM261200 31011KT P6SM SCT015 BKN025
      TEMPO 2612/2616 4SM -SN OVC015
     FM261600 34010KT 4SM -SN BR SCT004 OVC010=

USA.gov is the U.S. government's official web portal to all federal, state and local government web resources and services.